sensor_id;sensor_type;location;lat;lon;timestamp;P1;durP1;ratioP1;P2;durP2;ratioP2
77612;SDS011;66777;52.282;5.960;2023-06-22T00:00:42;698.65;;;673.67;;
77612;SDS011;66777;52.282;5.960;2023-06-22T00:03:07;703.33;;;677.97;;
77612;SDS011;66777;52.282;5.960;2023-06-22T00:05:33;701.08;;;675.83;;
77612;SDS011;66777;52.282;5.960;2023-06-22T00:08:01;702.33;;;677.25;;
77612;SDS011;66777;52.282;5.960;2023-06-22T00:10:29;695.33;;;670.67;;
77612;SDS011;66777;52.282;5.960;2023-06-22T00:12:54;695.45;;;671.13;;
77612;SDS011;66777;52.282;5.960;2023-06-22T00:15:20;691.45;;;667.58;;
77612;SDS011;66777;52.282;5.960;2023-06-22T00:17:45;685.13;;;661.83;;
77612;SDS011;66777;52.282;5.960;2023-06-22T00:20:11;683.92;;;660.72;;
77612;SDS011;66777;52.282;5.960;2023-06-22T00:22:37;685.22;;;661.80;;
77612;SDS011;66777;52.282;5.960;2023-06-22T00:25:05;685.28;;;661.78;;
77612;SDS011;66777;52.282;5.960;2023-06-22T00:27:34;688.83;;;665.00;;
77612;SDS011;66777;52.282;5.960;2023-06-22T00:30:00;688.15;;;664.50;;
77612;SDS011;66777;52.282;5.960;2023-06-22T00:32:25;686.90;;;663.30;;
77612;SDS011;66777;52.282;5.960;2023-06-22T00:34:51;687.33;;;663.50;;
77612;SDS011;66777;52.282;5.960;2023-06-22T00:37:17;687.33;;;663.65;;
77612;SDS011;66777;52.282;5.960;2023-06-22T00:39:43;690.40;;;666.35;;
77612;SDS011;66777;52.282;5.960;2023-06-22T00:42:09;685.78;;;662.38;;
77612;SDS011;66777;52.282;5.960;2023-06-22T00:44:35;684.08;;;660.97;;
77612;SDS011;66777;52.282;5.960;2023-06-22T00:47:01;688.33;;;664.55;;
77612;SDS011;66777;52.282;5.960;2023-06-22T00:49:27;682.10;;;659.15;;
77612;SDS011;66777;52.282;5.960;2023-06-22T00:51:53;679.05;;;656.13;;
77612;SDS011;66777;52.282;5.960;2023-06-22T00:54:19;682.70;;;659.63;;
77612;SDS011;66777;52.282;5.960;2023-06-22T00:56:49;683.08;;;660.08;;
77612;SDS011;66777;52.282;5.960;2023-06-22T01:01:45;683.53;;;660.53;;
77612;SDS011;66777;52.282;5.960;2023-06-22T01:04:10;684.17;;;661.22;;
77612;SDS011;66777;52.282;5.960;2023-06-22T01:06:38;680.08;;;657.10;;
77612;SDS011;66777;52.282;5.960;2023-06-22T01:09:15;682.13;;;659.28;;
77612;SDS011;66777;52.282;5.960;2023-06-22T01:11:52;682.65;;;659.65;;
77612;SDS011;66777;52.282;5.960;2023-06-22T01:14:24;686.45;;;663.58;;
77612;SDS011;66777;52.282;5.960;2023-06-22T01:17:07;681.22;;;658.25;;
77612;SDS011;66777;52.282;5.960;2023-06-22T01:22:03;680.72;;;658.15;;
77612;SDS011;66777;52.282;5.960;2023-06-22T01:24:41;672.30;;;650.08;;
77612;SDS011;66777;52.282;5.960;2023-06-22T01:30:10;671.38;;;649.72;;
77612;SDS011;66777;52.282;5.960;2023-06-22T01:32:37;672.25;;;650.58;;
77612;SDS011;66777;52.282;5.960;2023-06-22T01:35:04;665.22;;;643.90;;
77612;SDS011;66777;52.282;5.960;2023-06-22T01:37:32;661.30;;;640.38;;
77612;SDS011;66777;52.282;5.960;2023-06-22T01:39:59;660.20;;;639.38;;
77612;SDS011;66777;52.282;5.960;2023-06-22T01:42:26;658.65;;;638.00;;
77612;SDS011;66777;52.282;5.960;2023-06-22T01:44:53;658.60;;;637.97;;
77612;SDS011;66777;52.282;5.960;2023-06-22T01:47:20;666.00;;;645.22;;
77612;SDS011;66777;52.282;5.960;2023-06-22T01:49:50;655.83;;;635.53;;
77612;SDS011;66777;52.282;5.960;2023-06-22T01:52:18;657.08;;;636.67;;
77612;SDS011;66777;52.282;5.960;2023-06-22T01:54:45;657.03;;;636.72;;
77612;SDS011;66777;52.282;5.960;2023-06-22T01:57:11;655.55;;;635.40;;
77612;SDS011;66777;52.282;5.960;2023-06-22T01:59:39;654.25;;;634.03;;
77612;SDS011;66777;52.282;5.960;2023-06-22T02:02:18;679.42;;;658.17;;
77612;SDS011;66777;52.282;5.960;2023-06-22T02:04:56;650.10;;;630.28;;
77612;SDS011;66777;52.282;5.960;2023-06-22T02:07:26;652.17;;;632.47;;
77612;SDS011;66777;52.282;5.960;2023-06-22T02:09:57;650.80;;;631.13;;
77612;SDS011;66777;52.282;5.960;2023-06-22T02:12:24;649.08;;;629.30;;
77612;SDS011;66777;52.282;5.960;2023-06-22T02:14:52;645.53;;;626.03;;
77612;SDS011;66777;52.282;5.960;2023-06-22T02:17:18;660.75;;;640.38;;
77612;SDS011;66777;52.282;5.960;2023-06-22T02:19:44;652.33;;;632.28;;
77612;SDS011;66777;52.282;5.960;2023-06-22T02:22:09;658.17;;;637.80;;
77612;SDS011;66777;52.282;5.960;2023-06-22T02:24:35;659.17;;;638.80;;
77612;SDS011;66777;52.282;5.960;2023-06-22T02:27:01;658.47;;;638.00;;
77612;SDS011;66777;52.282;5.960;2023-06-22T02:29:27;658.60;;;637.88;;
77612;SDS011;66777;52.282;5.960;2023-06-22T02:31:54;664.78;;;643.92;;
77612;SDS011;66777;52.282;5.960;2023-06-22T02:34:20;674.47;;;653.15;;
77612;SDS011;66777;52.282;5.960;2023-06-22T02:36:46;668.95;;;647.92;;
77612;SDS011;66777;52.282;5.960;2023-06-22T02:41:43;660.08;;;639.60;;
77612;SDS011;66777;52.282;5.960;2023-06-22T02:44:09;659.72;;;639.28;;
77612;SDS011;66777;52.282;5.960;2023-06-22T02:46:35;663.45;;;642.50;;
77612;SDS011;66777;52.282;5.960;2023-06-22T02:49:01;665.30;;;644.13;;
77612;SDS011;66777;52.282;5.960;2023-06-22T02:51:26;661.08;;;640.10;;
77612;SDS011;66777;52.282;5.960;2023-06-22T02:53:52;667.45;;;646.15;;
77612;SDS011;66777;52.282;5.960;2023-06-22T02:56:22;670.33;;;649.05;;
77612;SDS011;66777;52.282;5.960;2023-06-22T02:58:50;670.42;;;649.13;;
77612;SDS011;66777;52.282;5.960;2023-06-22T03:01:16;690.35;;;667.97;;
77612;SDS011;66777;52.282;5.960;2023-06-22T03:03:41;662.97;;;641.88;;
77612;SDS011;66777;52.282;5.960;2023-06-22T03:06:07;667.72;;;646.40;;
77612;SDS011;66777;52.282;5.960;2023-06-22T03:08:32;672.33;;;650.78;;
77612;SDS011;66777;52.282;5.960;2023-06-22T03:10:58;667.20;;;645.90;;
77612;SDS011;66777;52.282;5.960;2023-06-22T03:13:24;666.53;;;645.17;;
77612;SDS011;66777;52.282;5.960;2023-06-22T03:15:49;671.70;;;650.22;;
77612;SDS011;66777;52.282;5.960;2023-06-22T03:18:15;667.88;;;646.67;;
77612;SDS011;66777;52.282;5.960;2023-06-22T03:20:41;674.38;;;652.47;;
77612;SDS011;66777;52.282;5.960;2023-06-22T03:23:06;670.70;;;649.30;;
77612;SDS011;66777;52.282;5.960;2023-06-22T03:25:32;667.20;;;645.80;;
77612;SDS011;66777;52.282;5.960;2023-06-22T03:27:58;675.38;;;653.35;;
77612;SDS011;66777;52.282;5.960;2023-06-22T03:30:26;668.63;;;647.20;;
77612;SDS011;66777;52.282;5.960;2023-06-22T03:32:51;692.90;;;670.40;;
77612;SDS011;66777;52.282;5.960;2023-06-22T03:35:17;673.25;;;651.55;;
77612;SDS011;66777;52.282;5.960;2023-06-22T03:37:42;668.58;;;647.03;;
77612;SDS011;66777;52.282;5.960;2023-06-22T03:40:08;675.17;;;653.40;;
77612;SDS011;66777;52.282;5.960;2023-06-22T03:42:34;665.60;;;644.20;;
77612;SDS011;66777;52.282;5.960;2023-06-22T03:45:03;669.70;;;647.92;;
77612;SDS011;66777;52.282;5.960;2023-06-22T03:47:29;667.70;;;646.10;;
77612;SDS011;66777;52.282;5.960;2023-06-22T03:49:55;668.55;;;646.70;;
77612;SDS011;66777;52.282;5.960;2023-06-22T03:52:21;672.08;;;650.00;;
77612;SDS011;66777;52.282;5.960;2023-06-22T03:54:47;676.67;;;654.40;;
77612;SDS011;66777;52.282;5.960;2023-06-22T03:57:13;680.65;;;658.00;;
77612;SDS011;66777;52.282;5.960;2023-06-22T03:59:39;685.33;;;662.60;;
77612;SDS011;66777;52.282;5.960;2023-06-22T04:02:04;671.97;;;650.03;;
77612;SDS011;66777;52.282;5.960;2023-06-22T04:04:30;701.15;;;677.65;;
77612;SDS011;66777;52.282;5.960;2023-06-22T04:06:55;688.30;;;664.90;;
77612;SDS011;66777;52.282;5.960;2023-06-22T04:09:21;686.92;;;662.90;;
77612;SDS011;66777;52.282;5.960;2023-06-22T04:11:46;691.85;;;668.25;;
77612;SDS011;66777;52.282;5.960;2023-06-22T04:14:12;685.17;;;661.67;;
77612;SDS011;66777;52.282;5.960;2023-06-22T04:16:38;689.65;;;666.00;;
77612;SDS011;66777;52.282;5.960;2023-06-22T04:19:03;692.28;;;668.05;;
77612;SDS011;66777;52.282;5.960;2023-06-22T04:21:29;696.88;;;671.05;;
77612;SDS011;66777;52.282;5.960;2023-06-22T04:23:55;688.63;;;663.08;;
77612;SDS011;66777;52.282;5.960;2023-06-22T04:26:20;692.67;;;666.75;;
77612;SDS011;66777;52.282;5.960;2023-06-22T04:28:46;706.08;;;679.17;;
77612;SDS011;66777;52.282;5.960;2023-06-22T04:31:16;707.28;;;679.75;;
77612;SDS011;66777;52.282;5.960;2023-06-22T04:33:44;701.95;;;674.88;;
77612;SDS011;66777;52.282;5.960;2023-06-22T04:36:09;711.10;;;684.40;;
77612;SDS011;66777;52.282;5.960;2023-06-22T04:38:38;705.10;;;678.25;;
77612;SDS011;66777;52.282;5.960;2023-06-22T04:41:04;707.03;;;680.58;;
77612;SDS011;66777;52.282;5.960;2023-06-22T04:43:29;713.60;;;686.15;;
77612;SDS011;66777;52.282;5.960;2023-06-22T04:45:58;699.65;;;672.25;;
77612;SDS011;66777;52.282;5.960;2023-06-22T04:48:28;695.25;;;668.38;;
77612;SDS011;66777;52.282;5.960;2023-06-22T04:51:00;700.72;;;673.20;;
77612;SDS011;66777;52.282;5.960;2023-06-22T04:53:28;706.70;;;678.83;;
77612;SDS011;66777;52.282;5.960;2023-06-22T04:55:55;704.60;;;676.65;;
77612;SDS011;66777;52.282;5.960;2023-06-22T04:58:20;708.00;;;679.08;;
77612;SDS011;66777;52.282;5.960;2023-06-22T05:00:46;717.17;;;687.50;;
77612;SDS011;66777;52.282;5.960;2023-06-22T05:03:12;724.35;;;693.80;;
77612;SDS011;66777;52.282;5.960;2023-06-22T05:05:38;723.58;;;692.80;;
77612;SDS011;66777;52.282;5.960;2023-06-22T05:08:03;734.90;;;703.60;;
77612;SDS011;66777;52.282;5.960;2023-06-22T05:10:31;728.13;;;697.25;;
77612;SDS011;66777;52.282;5.960;2023-06-22T05:13:00;737.15;;;705.50;;
77612;SDS011;66777;52.282;5.960;2023-06-22T05:15:25;731.95;;;700.40;;
77612;SDS011;66777;52.282;5.960;2023-06-22T05:20:21;729.58;;;698.78;;
77612;SDS011;66777;52.282;5.960;2023-06-22T05:22:47;720.08;;;689.92;;
77612;SDS011;66777;52.282;5.960;2023-06-22T05:25:12;742.97;;;711.30;;
77612;SDS011;66777;52.282;5.960;2023-06-22T05:27:38;722.63;;;692.03;;
77612;SDS011;66777;52.282;5.960;2023-06-22T05:30:09;720.33;;;689.00;;
77612;SDS011;66777;52.282;5.960;2023-06-22T05:32:35;723.58;;;692.55;;
77612;SDS011;66777;52.282;5.960;2023-06-22T05:35:02;728.08;;;696.90;;
77612;SDS011;66777;52.282;5.960;2023-06-22T05:37:28;727.90;;;696.08;;
77612;SDS011;66777;52.282;5.960;2023-06-22T05:39:54;722.38;;;691.08;;
77612;SDS011;66777;52.282;5.960;2023-06-22T05:42:20;730.75;;;699.35;;
77612;SDS011;66777;52.282;5.960;2023-06-22T05:44:46;749.15;;;717.13;;
77612;SDS011;66777;52.282;5.960;2023-06-22T05:47:12;728.05;;;696.90;;
77612;SDS011;66777;52.282;5.960;2023-06-22T05:49:38;727.53;;;696.08;;
77612;SDS011;66777;52.282;5.960;2023-06-22T05:52:04;727.75;;;696.65;;
77612;SDS011;66777;52.282;5.960;2023-06-22T05:54:29;729.90;;;698.28;;
77612;SDS011;66777;52.282;5.960;2023-06-22T05:56:55;736.65;;;704.35;;
77612;SDS011;66777;52.282;5.960;2023-06-22T05:59:21;738.90;;;706.38;;
77612;SDS011;66777;52.282;5.960;2023-06-22T06:01:47;745.22;;;712.20;;
77612;SDS011;66777;52.282;5.960;2023-06-22T06:04:18;740.75;;;708.40;;
77612;SDS011;66777;52.282;5.960;2023-06-22T06:06:44;747.95;;;714.45;;
77612;SDS011;66777;52.282;5.960;2023-06-22T06:09:12;749.97;;;716.13;;
77612;SDS011;66777;52.282;5.960;2023-06-22T06:11:39;753.97;;;720.10;;
77612;SDS011;66777;52.282;5.960;2023-06-22T06:14:04;755.63;;;721.67;;
77612;SDS011;66777;52.282;5.960;2023-06-22T06:16:30;759.63;;;724.65;;
77612;SDS011;66777;52.282;5.960;2023-06-22T06:18:55;755.60;;;721.03;;
77612;SDS011;66777;52.282;5.960;2023-06-22T06:21:21;760.35;;;725.30;;
77612;SDS011;66777;52.282;5.960;2023-06-22T06:23:47;755.42;;;721.60;;
77612;SDS011;66777;52.282;5.960;2023-06-22T06:26:13;755.97;;;721.83;;
77612;SDS011;66777;52.282;5.960;2023-06-22T06:28:41;765.53;;;729.83;;
77612;SDS011;66777;52.282;5.960;2023-06-22T06:31:07;762.60;;;727.30;;
77612;SDS011;66777;52.282;5.960;2023-06-22T06:33:33;765.78;;;730.42;;
77612;SDS011;66777;52.282;5.960;2023-06-22T06:35:59;773.03;;;736.65;;
77612;SDS011;66777;52.282;5.960;2023-06-22T06:38:27;776.60;;;740.17;;
77612;SDS011;66777;52.282;5.960;2023-06-22T06:40:53;783.88;;;747.17;;
77612;SDS011;66777;52.282;5.960;2023-06-22T06:43:18;791.38;;;753.30;;
77612;SDS011;66777;52.282;5.960;2023-06-22T06:45:44;795.22;;;755.70;;
77612;SDS011;66777;52.282;5.960;2023-06-22T06:48:09;795.75;;;757.20;;
77612;SDS011;66777;52.282;5.960;2023-06-22T06:50:35;798.47;;;759.03;;
77612;SDS011;66777;52.282;5.960;2023-06-22T06:53:01;794.53;;;755.45;;
77612;SDS011;66777;52.282;5.960;2023-06-22T06:55:26;797.53;;;757.78;;
77612;SDS011;66777;52.282;5.960;2023-06-22T06:57:58;793.28;;;754.40;;
77612;SDS011;66777;52.282;5.960;2023-06-22T10:05:37;831.72;;;782.60;;
77612;SDS011;66777;52.282;5.960;2023-06-22T10:08:03;829.38;;;780.95;;
77612;SDS011;66777;52.282;5.960;2023-06-22T10:10:28;837.05;;;786.30;;
77612;SDS011;66777;52.282;5.960;2023-06-22T10:12:55;835.50;;;785.90;;
77612;SDS011;66777;52.282;5.960;2023-06-22T10:15:23;834.75;;;785.88;;
77612;SDS011;66777;52.282;5.960;2023-06-22T10:17:49;832.08;;;782.55;;
77612;SDS011;66777;52.282;5.960;2023-06-22T10:20:15;834.72;;;784.85;;
77612;SDS011;66777;52.282;5.960;2023-06-22T10:22:43;829.95;;;781.00;;
77612;SDS011;66777;52.282;5.960;2023-06-22T10:25:10;832.05;;;782.72;;
77612;SDS011;66777;52.282;5.960;2023-06-22T10:27:36;829.25;;;781.03;;
77612;SDS011;66777;52.282;5.960;2023-06-22T10:30:05;827.60;;;778.95;;
77612;SDS011;66777;52.282;5.960;2023-06-22T10:32:32;831.10;;;781.35;;
77612;SDS011;66777;52.282;5.960;2023-06-22T10:34:58;822.67;;;774.78;;
77612;SDS011;66777;52.282;5.960;2023-06-22T10:37:23;824.25;;;776.38;;
77612;SDS011;66777;52.282;5.960;2023-06-22T10:39:49;824.80;;;777.00;;
77612;SDS011;66777;52.282;5.960;2023-06-22T10:42:15;828.83;;;779.83;;
77612;SDS011;66777;52.282;5.960;2023-06-22T10:44:41;825.65;;;777.50;;
77612;SDS011;66777;52.282;5.960;2023-06-22T10:47:09;823.40;;;775.40;;
77612;SDS011;66777;52.282;5.960;2023-06-22T10:49:36;820.42;;;773.13;;
77612;SDS011;66777;52.282;5.960;2023-06-22T10:52:03;820.47;;;773.10;;
77612;SDS011;66777;52.282;5.960;2023-06-22T10:54:28;823.13;;;775.35;;
77612;SDS011;66777;52.282;5.960;2023-06-22T10:56:54;817.25;;;770.15;;
77612;SDS011;66777;52.282;5.960;2023-06-22T10:59:19;822.33;;;773.42;;
77612;SDS011;66777;52.282;5.960;2023-06-22T11:01:46;816.25;;;769.17;;
77612;SDS011;66777;52.282;5.960;2023-06-22T11:04:12;824.58;;;775.17;;
77612;SDS011;66777;52.282;5.960;2023-06-22T11:06:37;824.03;;;775.92;;
77612;SDS011;66777;52.282;5.960;2023-06-22T11:09:03;820.75;;;772.78;;
77612;SDS011;66777;52.282;5.960;2023-06-22T11:11:29;823.05;;;774.03;;
77612;SDS011;66777;52.282;5.960;2023-06-22T11:13:54;824.10;;;775.25;;
77612;SDS011;66777;52.282;5.960;2023-06-22T11:16:20;824.83;;;774.97;;
77612;SDS011;66777;52.282;5.960;2023-06-22T11:18:46;824.17;;;775.05;;
77612;SDS011;66777;52.282;5.960;2023-06-22T11:21:11;823.30;;;773.83;;
77612;SDS011;66777;52.282;5.960;2023-06-22T11:23:46;825.67;;;775.95;;
77612;SDS011;66777;52.282;5.960;2023-06-22T11:26:11;828.30;;;778.33;;
77612;SDS011;66777;52.282;5.960;2023-06-22T11:28:37;825.47;;;776.00;;
77612;SDS011;66777;52.282;5.960;2023-06-22T11:31:12;830.47;;;780.47;;
77612;SDS011;66777;52.282;5.960;2023-06-22T11:33:38;820.00;;;771.13;;
77612;SDS011;66777;52.282;5.960;2023-06-22T11:36:04;825.33;;;775.78;;
77612;SDS011;66777;52.282;5.960;2023-06-22T11:38:30;832.05;;;781.83;;
77612;SDS011;66777;52.282;5.960;2023-06-22T11:40:57;826.35;;;777.53;;
77612;SDS011;66777;52.282;5.960;2023-06-22T11:43:23;824.58;;;775.80;;
77612;SDS011;66777;52.282;5.960;2023-06-22T11:45:50;827.88;;;778.63;;
77612;SDS011;66777;52.282;5.960;2023-06-22T11:48:16;825.28;;;775.78;;
77612;SDS011;66777;52.282;5.960;2023-06-22T11:50:42;827.67;;;778.10;;
77612;SDS011;66777;52.282;5.960;2023-06-22T11:53:07;834.60;;;783.95;;
77612;SDS011;66777;52.282;5.960;2023-06-22T11:55:33;826.78;;;777.15;;
77612;SDS011;66777;52.282;5.960;2023-06-22T11:57:58;827.10;;;777.53;;
77612;SDS011;66777;52.282;5.960;2023-06-22T12:00:28;829.30;;;779.97;;
77612;SDS011;66777;52.282;5.960;2023-06-22T12:02:54;825.55;;;775.83;;
77612;SDS011;66777;52.282;5.960;2023-06-22T12:05:21;832.30;;;781.95;;
77612;SDS011;66777;52.282;5.960;2023-06-22T12:07:48;831.60;;;780.95;;
77612;SDS011;66777;52.282;5.960;2023-06-22T12:10:13;827.60;;;777.80;;
77612;SDS011;66777;52.282;5.960;2023-06-22T12:12:40;825.17;;;776.63;;
77612;SDS011;66777;52.282;5.960;2023-06-22T12:15:06;823.80;;;775.15;;
77612;SDS011;66777;52.282;5.960;2023-06-22T12:17:32;823.58;;;775.40;;
77612;SDS011;66777;52.282;5.960;2023-06-22T12:19:59;822.85;;;774.30;;
77612;SDS011;66777;52.282;5.960;2023-06-22T12:22:24;822.55;;;774.45;;
77612;SDS011;66777;52.282;5.960;2023-06-22T12:24:50;818.35;;;770.75;;
77612;SDS011;66777;52.282;5.960;2023-06-22T12:27:16;818.08;;;770.67;;
77612;SDS011;66777;52.282;5.960;2023-06-22T12:29:43;817.78;;;770.60;;
77612;SDS011;66777;52.282;5.960;2023-06-22T12:32:12;820.63;;;772.85;;
77612;SDS011;66777;52.282;5.960;2023-06-22T12:34:38;814.83;;;767.65;;
77612;SDS011;66777;52.282;5.960;2023-06-22T12:37:04;821.97;;;773.55;;
77612;SDS011;66777;52.282;5.960;2023-06-22T12:39:31;818.10;;;770.97;;
77612;SDS011;66777;52.282;5.960;2023-06-22T12:41:57;816.10;;;767.65;;
77612;SDS011;66777;52.282;5.960;2023-06-22T12:44:23;816.40;;;769.03;;
77612;SDS011;66777;52.282;5.960;2023-06-22T12:46:48;831.60;;;781.67;;
77612;SDS011;66777;52.282;5.960;2023-06-22T12:49:14;831.03;;;780.63;;
77612;SDS011;66777;52.282;5.960;2023-06-22T12:51:40;821.40;;;772.85;;
77612;SDS011;66777;52.282;5.960;2023-06-22T12:54:07;823.67;;;774.58;;
77612;SDS011;66777;52.282;5.960;2023-06-22T12:56:33;833.38;;;784.00;;
77612;SDS011;66777;52.282;5.960;2023-06-22T12:58:58;835.03;;;784.25;;
77612;SDS011;66777;52.282;5.960;2023-06-22T13:01:27;835.85;;;784.92;;
77612;SDS011;66777;52.282;5.960;2023-06-22T13:03:53;841.53;;;789.80;;
77612;SDS011;66777;52.282;5.960;2023-06-22T13:06:18;837.38;;;785.53;;
77612;SDS011;66777;52.282;5.960;2023-06-22T13:08:44;837.15;;;785.47;;
77612;SDS011;66777;52.282;5.960;2023-06-22T13:11:10;838.10;;;786.22;;
77612;SDS011;66777;52.282;5.960;2023-06-22T13:13:35;833.47;;;782.85;;
77612;SDS011;66777;52.282;5.960;2023-06-22T13:16:01;833.85;;;782.72;;
77612;SDS011;66777;52.282;5.960;2023-06-22T13:18:26;821.95;;;772.72;;
77612;SDS011;66777;52.282;5.960;2023-06-22T13:20:52;835.78;;;784.78;;
77612;SDS011;66777;52.282;5.960;2023-06-22T13:23:19;832.85;;;782.10;;
77612;SDS011;66777;52.282;5.960;2023-06-22T13:25:46;823.53;;;774.83;;
77612;SDS011;66777;52.282;5.960;2023-06-22T13:28:11;824.28;;;775.38;;
77612;SDS011;66777;52.282;5.960;2023-06-22T13:30:38;823.60;;;775.53;;
77612;SDS011;66777;52.282;5.960;2023-06-22T13:33:05;833.38;;;782.47;;
77612;SDS011;66777;52.282;5.960;2023-06-22T13:35:30;830.97;;;781.22;;
77612;SDS011;66777;52.282;5.960;2023-06-22T13:37:56;823.15;;;774.45;;
77612;SDS011;66777;52.282;5.960;2023-06-22T13:40:22;833.90;;;783.17;;
77612;SDS011;66777;52.282;5.960;2023-06-22T13:42:47;835.55;;;784.65;;
77612;SDS011;66777;52.282;5.960;2023-06-22T13:45:13;841.83;;;790.15;;
77612;SDS011;66777;52.282;5.960;2023-06-22T13:47:39;833.50;;;782.33;;
77612;SDS011;66777;52.282;5.960;2023-06-22T13:50:04;837.40;;;785.85;;
77612;SDS011;66777;52.282;5.960;2023-06-22T13:52:30;829.83;;;779.22;;
77612;SDS011;66777;52.282;5.960;2023-06-22T13:54:56;824.03;;;774.15;;
77612;SDS011;66777;52.282;5.960;2023-06-22T13:57:21;824.78;;;775.55;;
77612;SDS011;66777;52.282;5.960;2023-06-22T13:59:47;819.38;;;772.58;;
77612;SDS011;66777;52.282;5.960;2023-06-22T14:02:12;816.03;;;768.60;;
77612;SDS011;66777;52.282;5.960;2023-06-22T14:04:38;825.15;;;776.05;;
77612;SDS011;66777;52.282;5.960;2023-06-22T14:07:04;822.75;;;774.45;;
77612;SDS011;66777;52.282;5.960;2023-06-22T14:09:30;811.88;;;766.95;;
77612;SDS011;66777;52.282;5.960;2023-06-22T14:11:55;806.63;;;762.28;;
77612;SDS011;66777;52.282;5.960;2023-06-22T14:14:21;807.30;;;763.53;;
77612;SDS011;66777;52.282;5.960;2023-06-22T14:16:47;801.50;;;758.83;;
77612;SDS011;66777;52.282;5.960;2023-06-22T14:19:14;800.17;;;757.72;;
77612;SDS011;66777;52.282;5.960;2023-06-22T14:21:42;792.72;;;750.88;;
77612;SDS011;66777;52.282;5.960;2023-06-22T14:24:07;809.75;;;766.13;;
77612;SDS011;66777;52.282;5.960;2023-06-22T14:26:33;789.25;;;748.47;;
77612;SDS011;66777;52.282;5.960;2023-06-22T14:28:58;788.63;;;748.95;;
77612;SDS011;66777;52.282;5.960;2023-06-22T14:31:24;791.35;;;750.90;;
77612;SDS011;66777;52.282;5.960;2023-06-22T14:33:50;796.58;;;755.22;;
77612;SDS011;66777;52.282;5.960;2023-06-22T14:36:15;791.67;;;750.83;;
77612;SDS011;66777;52.282;5.960;2023-06-22T14:38:42;793.13;;;751.38;;
77612;SDS011;66777;52.282;5.960;2023-06-22T14:41:08;790.42;;;750.25;;
77612;SDS011;66777;52.282;5.960;2023-06-22T14:43:33;810.90;;;765.95;;
77612;SDS011;66777;52.282;5.960;2023-06-22T14:45:59;799.97;;;757.40;;
77612;SDS011;66777;52.282;5.960;2023-06-22T14:48:25;795.90;;;753.92;;
77612;SDS011;66777;52.282;5.960;2023-06-22T14:50:51;801.75;;;758.40;;
77612;SDS011;66777;52.282;5.960;2023-06-22T14:53:16;803.13;;;760.25;;
77612;SDS011;66777;52.282;5.960;2023-06-22T14:55:42;815.58;;;769.33;;
77612;SDS011;66777;52.282;5.960;2023-06-22T14:58:09;808.75;;;764.63;;
77612;SDS011;66777;52.282;5.960;2023-06-22T15:00:35;812.83;;;767.88;;
77612;SDS011;66777;52.282;5.960;2023-06-22T15:03:01;814.38;;;769.35;;
77612;SDS011;66777;52.282;5.960;2023-06-22T15:05:27;813.83;;;768.80;;
77612;SDS011;66777;52.282;5.960;2023-06-22T15:07:53;817.90;;;771.85;;
77612;SDS011;66777;52.282;5.960;2023-06-22T15:10:18;818.42;;;773.03;;
77612;SDS011;66777;52.282;5.960;2023-06-22T15:12:44;815.05;;;769.47;;
77612;SDS011;66777;52.282;5.960;2023-06-22T15:15:10;820.70;;;774.53;;
77612;SDS011;66777;52.282;5.960;2023-06-22T15:17:35;813.22;;;767.95;;
77612;SDS011;66777;52.282;5.960;2023-06-22T15:20:01;812.28;;;765.90;;
77612;SDS011;66777;52.282;5.960;2023-06-22T15:22:30;824.45;;;777.67;;
77612;SDS011;66777;52.282;5.960;2023-06-22T15:24:56;814.42;;;768.50;;
77612;SDS011;66777;52.282;5.960;2023-06-22T15:27:23;815.78;;;768.95;;
77612;SDS011;66777;52.282;5.960;2023-06-22T15:29:49;810.83;;;765.83;;
77612;SDS011;66777;52.282;5.960;2023-06-22T15:32:14;811.15;;;766.47;;
77612;SDS011;66777;52.282;5.960;2023-06-22T15:34:40;813.85;;;768.15;;
77612;SDS011;66777;52.282;5.960;2023-06-22T15:37:06;812.40;;;766.88;;
77612;SDS011;66777;52.282;5.960;2023-06-22T15:39:31;812.85;;;767.72;;
77612;SDS011;66777;52.282;5.960;2023-06-22T15:41:57;818.22;;;771.88;;
77612;SDS011;66777;52.282;5.960;2023-06-22T15:44:22;814.22;;;768.60;;
77612;SDS011;66777;52.282;5.960;2023-06-22T15:46:48;816.63;;;770.67;;
77612;SDS011;66777;52.282;5.960;2023-06-22T15:49:14;815.90;;;769.25;;
77612;SDS011;66777;52.282;5.960;2023-06-22T15:51:41;819.85;;;773.85;;
77612;SDS011;66777;52.282;5.960;2023-06-22T15:54:06;813.20;;;766.38;;
77612;SDS011;66777;52.282;5.960;2023-06-22T15:56:32;818.80;;;771.83;;
77612;SDS011;66777;52.282;5.960;2023-06-22T15:58:57;812.50;;;766.65;;
77612;SDS011;66777;52.282;5.960;2023-06-22T16:01:23;815.60;;;769.00;;
77612;SDS011;66777;52.282;5.960;2023-06-22T16:03:50;817.97;;;771.17;;
77612;SDS011;66777;52.282;5.960;2023-06-22T16:06:15;813.88;;;767.60;;
77612;SDS011;66777;52.282;5.960;2023-06-22T16:08:41;810.28;;;764.72;;
77612;SDS011;66777;52.282;5.960;2023-06-22T16:11:08;812.03;;;765.60;;
77612;SDS011;66777;52.282;5.960;2023-06-22T16:13:34;818.50;;;772.78;;
77612;SDS011;66777;52.282;5.960;2023-06-22T16:15:59;812.10;;;766.92;;
77612;SDS011;66777;52.282;5.960;2023-06-22T16:18:25;810.47;;;764.78;;
77612;SDS011;66777;52.282;5.960;2023-06-22T16:20:51;811.40;;;764.70;;
77612;SDS011;66777;52.282;5.960;2023-06-22T16:23:17;816.72;;;771.10;;
77612;SDS011;66777;52.282;5.960;2023-06-22T16:25:43;816.50;;;769.90;;
77612;SDS011;66777;52.282;5.960;2023-06-22T16:28:09;820.60;;;773.10;;
77612;SDS011;66777;52.282;5.960;2023-06-22T16:30:35;816.30;;;768.83;;
77612;SDS011;66777;52.282;5.960;2023-06-22T16:33:01;819.55;;;772.08;;
77612;SDS011;66777;52.282;5.960;2023-06-22T16:35:27;823.47;;;775.45;;
77612;SDS011;66777;52.282;5.960;2023-06-22T16:37:55;811.45;;;763.65;;
77612;SDS011;66777;52.282;5.960;2023-06-22T16:40:21;817.90;;;769.90;;
77612;SDS011;66777;52.282;5.960;2023-06-22T16:42:47;813.25;;;766.17;;
77612;SDS011;66777;52.282;5.960;2023-06-22T16:45:15;806.17;;;759.88;;
77612;SDS011;66777;52.282;5.960;2023-06-22T16:47:42;805.13;;;756.85;;
77612;SDS011;66777;52.282;5.960;2023-06-22T16:50:08;810.42;;;763.20;;
77612;SDS011;66777;52.282;5.960;2023-06-22T16:52:34;810.40;;;764.50;;
77612;SDS011;66777;52.282;5.960;2023-06-22T16:55:02;803.88;;;757.05;;
77612;SDS011;66777;52.282;5.960;2023-06-22T16:57:32;806.83;;;760.50;;
77612;SDS011;66777;52.282;5.960;2023-06-22T16:59:58;809.10;;;761.97;;
77612;SDS011;66777;52.282;5.960;2023-06-22T17:02:24;810.83;;;762.97;;
77612;SDS011;66777;52.282;5.960;2023-06-22T17:04:51;808.13;;;759.15;;
77612;SDS011;66777;52.282;5.960;2023-06-22T17:07:22;804.30;;;755.28;;
77612;SDS011;66777;52.282;5.960;2023-06-22T17:12:16;806.50;;;759.80;;